sensor_id;sensor_type;location;lat;lon;timestamp;pressure;altitude;pressure_sealevel;temperature;humidity
55289;BME280;41154;45.394;5.734;2023-04-01T00:02:18;96704.75;;;7.67;100.00
55289;BME280;41154;45.394;5.734;2023-04-01T00:04:44;96698.34;;;7.68;100.00
55289;BME280;41154;45.394;5.734;2023-04-01T00:07:10;96691.06;;;7.92;100.00
55289;BME280;41154;45.394;5.734;2023-04-01T00:09:36;96695.69;;;7.97;100.00
55289;BME280;41154;45.394;5.734;2023-04-01T00:12:03;96685.41;;;7.88;100.00
55289;BME280;41154;45.394;5.734;2023-04-01T00:14:29;96688.72;;;7.96;100.00
55289;BME280;41154;45.394;5.734;2023-04-01T00:16:55;96693.06;;;7.85;100.00
55289;BME280;41154;45.394;5.734;2023-04-01T00:19:21;96693.66;;;7.87;100.00
55289;BME280;41154;45.394;5.734;2023-04-01T00:21:47;96683.84;;;7.92;100.00
55289;BME280;41154;45.394;5.734;2023-04-01T00:24:13;96692.31;;;8.18;100.00
55289;BME280;41154;45.394;5.734;2023-04-01T00:26:39;96692.94;;;8.08;100.00
55289;BME280;41154;45.394;5.734;2023-04-01T00:29:07;96691.22;;;8.02;100.00
55289;BME280;41154;45.394;5.734;2023-04-01T00:31:34;96689.19;;;7.92;100.00
55289;BME280;41154;45.394;5.734;2023-04-01T00:33:59;96696.38;;;7.75;100.00
55289;BME280;41154;45.394;5.734;2023-04-01T00:36:25;96691.50;;;7.72;100.00
55289;BME280;41154;45.394;5.734;2023-04-01T00:38:51;96693.66;;;8.04;100.00
55289;BME280;41154;45.394;5.734;2023-04-01T00:41:19;96691.25;;;8.19;100.00
55289;BME280;41154;45.394;5.734;2023-04-01T00:43:47;96682.50;;;8.24;100.00
55289;BME280;41154;45.394;5.734;2023-04-01T00:46:14;96688.72;;;7.96;100.00
55289;BME280;41154;45.394;5.734;2023-04-01T00:48:49;96685.00;;;7.68;100.00
55289;BME280;41154;45.394;5.734;2023-04-01T00:51:22;96688.34;;;7.46;100.00
55289;BME280;41154;45.394;5.734;2023-04-01T00:53:51;96691.22;;;7.56;100.00
55289;BME280;41154;45.394;5.734;2023-04-01T00:56:32;96688.16;;;7.94;100.00
55289;BME280;41154;45.394;5.734;2023-04-01T00:59:21;96677.63;;;8.04;100.00
55289;BME280;41154;45.394;5.734;2023-04-01T01:01:49;96680.28;;;8.04;100.00
55289;BME280;41154;45.394;5.734;2023-04-01T01:04:25;96675.00;;;7.75;100.00
55289;BME280;41154;45.394;5.734;2023-04-01T01:07:03;96665.94;;;7.76;100.00
55289;BME280;41154;45.394;5.734;2023-04-01T01:10:00;96662.88;;;7.84;100.00
55289;BME280;41154;45.394;5.734;2023-04-01T01:12:40;96664.25;;;7.70;100.00
55289;BME280;41154;45.394;5.734;2023-04-01T01:15:26;96668.06;;;7.45;100.00
55289;BME280;41154;45.394;5.734;2023-04-01T01:31:36;96649.72;;;7.08;100.00
55289;BME280;41154;45.394;5.734;2023-04-01T01:37:03;96650.75;;;7.07;100.00
55289;BME280;41154;45.394;5.734;2023-04-01T01:39:33;96653.16;;;7.20;100.00
55289;BME280;41154;45.394;5.734;2023-04-01T01:42:04;96648.53;;;7.28;100.00
55289;BME280;41154;45.394;5.734;2023-04-01T01:44:32;96644.31;;;7.32;100.00
55289;BME280;41154;45.394;5.734;2023-04-01T01:47:01;96636.91;;;7.34;100.00
55289;BME280;41154;45.394;5.734;2023-04-01T01:49:28;96639.81;;;7.32;100.00
55289;BME280;41154;45.394;5.734;2023-04-01T01:51:56;96634.78;;;7.36;100.00
55289;BME280;41154;45.394;5.734;2023-04-01T01:54:23;96636.59;;;7.18;100.00
55289;BME280;41154;45.394;5.734;2023-04-01T01:56:51;96648.06;;;7.19;100.00
55289;BME280;41154;45.394;5.734;2023-04-01T01:59:21;96638.19;;;7.19;100.00
55289;BME280;41154;45.394;5.734;2023-04-01T02:01:51;96643.19;;;7.28;100.00
55289;BME280;41154;45.394;5.734;2023-04-01T02:04:18;96640.03;;;7.31;100.00
55289;BME280;41154;45.394;5.734;2023-04-01T02:07:02;96650.88;;;7.41;100.00
55289;BME280;41154;45.394;5.734;2023-04-01T02:09:29;96639.91;;;7.37;100.00
55289;BME280;41154;45.394;5.734;2023-04-01T02:11:59;96641.25;;;7.11;100.00
55289;BME280;41154;45.394;5.734;2023-04-01T02:17:16;96633.50;;;6.98;100.00
55289;BME280;41154;45.394;5.734;2023-04-01T02:20:16;96640.94;;;6.96;100.00
55289;BME280;41154;45.394;5.734;2023-04-01T02:22:47;96630.13;;;7.02;100.00
55289;BME280;41154;45.394;5.734;2023-04-01T02:25:17;96617.31;;;7.28;100.00
55289;BME280;41154;45.394;5.734;2023-04-01T02:27:45;96632.78;;;7.14;100.00
55289;BME280;41154;45.394;5.734;2023-04-01T02:30:13;96627.91;;;7.11;100.00
55289;BME280;41154;45.394;5.734;2023-04-01T02:32:41;96625.94;;;7.18;100.00
55289;BME280;41154;45.394;5.734;2023-04-01T02:35:11;96622.97;;;7.03;100.00
55289;BME280;41154;45.394;5.734;2023-04-01T02:37:38;96623.75;;;7.04;100.00
55289;BME280;41154;45.394;5.734;2023-04-01T02:40:05;96627.22;;;7.04;100.00
55289;BME280;41154;45.394;5.734;2023-04-01T02:42:33;96623.06;;;7.08;100.00
55289;BME280;41154;45.394;5.734;2023-04-01T02:44:59;96626.66;;;7.14;100.00
55289;BME280;41154;45.394;5.734;2023-04-01T02:47:25;96632.44;;;7.40;100.00
55289;BME280;41154;45.394;5.734;2023-04-01T02:49:51;96621.06;;;7.15;100.00
55289;BME280;41154;45.394;5.734;2023-04-01T02:52:24;96619.81;;;7.06;100.00
55289;BME280;41154;45.394;5.734;2023-04-01T02:54:50;96613.31;;;7.14;100.00
55289;BME280;41154;45.394;5.734;2023-04-01T02:57:16;96618.34;;;6.98;100.00
55289;BME280;41154;45.394;5.734;2023-04-01T02:59:42;96618.66;;;7.14;100.00
55289;BME280;41154;45.394;5.734;2023-04-01T03:02:08;96621.00;;;7.27;100.00
55289;BME280;41154;45.394;5.734;2023-04-01T03:04:34;96606.72;;;7.33;100.00
55289;BME280;41154;45.394;5.734;2023-04-01T03:07:00;96587.63;;;6.96;100.00
55289;BME280;41154;45.394;5.734;2023-04-01T03:09:25;96589.84;;;6.87;100.00
55289;BME280;41154;45.394;5.734;2023-04-01T03:11:51;96591.47;;;6.88;100.00
55289;BME280;41154;45.394;5.734;2023-04-01T03:14:17;96588.22;;;6.86;100.00
55289;BME280;41154;45.394;5.734;2023-04-01T03:16:43;96577.72;;;6.79;100.00
55289;BME280;41154;45.394;5.734;2023-04-01T03:19:09;96580.66;;;6.95;100.00
55289;BME280;41154;45.394;5.734;2023-04-01T03:21:35;96584.38;;;6.94;100.00
55289;BME280;41154;45.394;5.734;2023-04-01T03:24:01;96575.94;;;6.85;100.00
55289;BME280;41154;45.394;5.734;2023-04-01T03:26:29;96567.63;;;6.81;100.00
55289;BME280;41154;45.394;5.734;2023-04-01T03:28:55;96562.28;;;6.81;100.00
55289;BME280;41154;45.394;5.734;2023-04-01T03:31:21;96571.16;;;6.87;100.00
55289;BME280;41154;45.394;5.734;2023-04-01T03:33:51;96562.81;;;6.95;100.00
55289;BME280;41154;45.394;5.734;2023-04-01T03:36:17;96559.22;;;6.90;100.00
55289;BME280;41154;45.394;5.734;2023-04-01T03:38:44;96556.00;;;6.88;100.00
55289;BME280;41154;45.394;5.734;2023-04-01T03:41:15;96556.56;;;6.90;100.00
55289;BME280;41154;45.394;5.734;2023-04-01T03:43:41;96560.66;;;6.80;100.00
55289;BME280;41154;45.394;5.734;2023-04-01T03:46:07;96555.16;;;6.87;100.00
55289;BME280;41154;45.394;5.734;2023-04-01T03:48:33;96553.09;;;7.18;100.00
55289;BME280;41154;45.394;5.734;2023-04-01T03:50:59;96549.81;;;6.99;100.00
55289;BME280;41154;45.394;5.734;2023-04-01T03:53:25;96560.72;;;6.97;100.00
55289;BME280;41154;45.394;5.734;2023-04-01T03:55:55;96569.03;;;7.01;100.00
55289;BME280;41154;45.394;5.734;2023-04-01T03:58:21;96574.38;;;7.01;100.00
55289;BME280;41154;45.394;5.734;2023-04-01T04:00:48;96573.00;;;6.98;100.00
55289;BME280;41154;45.394;5.734;2023-04-01T04:03:14;96578.56;;;6.97;100.00
55289;BME280;41154;45.394;5.734;2023-04-01T04:05:48;96573.47;;;7.24;100.00
55289;BME280;41154;45.394;5.734;2023-04-01T04:08:15;96570.03;;;7.12;100.00
55289;BME280;41154;45.394;5.734;2023-04-01T04:10:43;96571.91;;;6.82;100.00
55289;BME280;41154;45.394;5.734;2023-04-01T04:13:09;96570.00;;;7.24;100.00
55289;BME280;41154;45.394;5.734;2023-04-01T04:15:39;96574.00;;;7.09;100.00
55289;BME280;41154;45.394;5.734;2023-04-01T04:18:06;96578.09;;;7.00;100.00
55289;BME280;41154;45.394;5.734;2023-04-01T04:20:31;96582.75;;;6.93;100.00
55289;BME280;41154;45.394;5.734;2023-04-01T04:22:57;96582.25;;;7.08;100.00
55289;BME280;41154;45.394;5.734;2023-04-01T04:25:23;96588.31;;;7.03;100.00
55289;BME280;41154;45.394;5.734;2023-04-01T04:27:49;96581.19;;;7.09;100.00
55289;BME280;41154;45.394;5.734;2023-04-01T04:30:15;96563.44;;;7.14;100.00
55289;BME280;41154;45.394;5.734;2023-04-01T04:32:41;96561.63;;;7.03;100.00
55289;BME280;41154;45.394;5.734;2023-04-01T04:35:08;96557.91;;;7.04;100.00
55289;BME280;41154;45.394;5.734;2023-04-01T04:37:34;96564.78;;;7.00;100.00
55289;BME280;41154;45.394;5.734;2023-04-01T04:40:00;96566.50;;;7.06;100.00
55289;BME280;41154;45.394;5.734;2023-04-01T04:42:26;96572.06;;;7.05;100.00
55289;BME280;41154;45.394;5.734;2023-04-01T04:44:59;96572.38;;;7.08;100.00
55289;BME280;41154;45.394;5.734;2023-04-01T04:47:26;96579.53;;;7.19;100.00
55289;BME280;41154;45.394;5.734;2023-04-01T04:49:51;96571.72;;;7.30;100.00
55289;BME280;41154;45.394;5.734;2023-04-01T04:52:17;96574.19;;;7.65;100.00
55289;BME280;41154;45.394;5.734;2023-04-01T04:54:43;96578.31;;;7.27;100.00
55289;BME280;41154;45.394;5.734;2023-04-01T04:57:09;96578.75;;;7.36;100.00
55289;BME280;41154;45.394;5.734;2023-04-01T04:59:43;96575.78;;;7.32;100.00
55289;BME280;41154;45.394;5.734;2023-04-01T05:02:17;96574.81;;;7.10;100.00
55289;BME280;41154;45.394;5.734;2023-04-01T05:04:42;96581.91;;;7.04;100.00
55289;BME280;41154;45.394;5.734;2023-04-01T05:07:10;96585.75;;;6.96;100.00
55289;BME280;41154;45.394;5.734;2023-04-01T05:09:36;96576.16;;;6.83;100.00
55289;BME280;41154;45.394;5.734;2023-04-01T05:12:02;96578.03;;;6.83;100.00
55289;BME280;41154;45.394;5.734;2023-04-01T05:14:40;96570.34;;;6.98;100.00
55289;BME280;41154;45.394;5.734;2023-04-01T05:17:10;96576.06;;;7.19;100.00
55289;BME280;41154;45.394;5.734;2023-04-01T05:19:37;96571.63;;;6.96;100.00
55289;BME280;41154;45.394;5.734;2023-04-01T05:22:03;96585.31;;;6.88;100.00
55289;BME280;41154;45.394;5.734;2023-04-01T05:24:33;96594.38;;;6.87;100.00
55289;BME280;41154;45.394;5.734;2023-04-01T05:26:59;96606.91;;;6.86;100.00
55289;BME280;41154;45.394;5.734;2023-04-01T05:29:26;96619.50;;;6.91;100.00
55289;BME280;41154;45.394;5.734;2023-04-01T05:32:00;96636.31;;;7.03;100.00
55289;BME280;41154;45.394;5.734;2023-04-01T05:34:25;96647.38;;;7.24;100.00
55289;BME280;41154;45.394;5.734;2023-04-01T05:36:51;96650.81;;;7.36;100.00
55289;BME280;41154;45.394;5.734;2023-04-01T05:39:19;96654.34;;;7.13;100.00
55289;BME280;41154;45.394;5.734;2023-04-01T05:41:46;96646.22;;;7.19;100.00
55289;BME280;41154;45.394;5.734;2023-04-01T05:44:12;96650.06;;;7.12;100.00
55289;BME280;41154;45.394;5.734;2023-04-01T05:46:38;96652.47;;;7.54;100.00
55289;BME280;41154;45.394;5.734;2023-04-01T05:49:25;96658.66;;;7.71;100.00
55289;BME280;41154;45.394;5.734;2023-04-01T05:51:50;96661.91;;;7.73;100.00
55289;BME280;41154;45.394;5.734;2023-04-01T05:54:18;96664.38;;;7.63;100.00
55289;BME280;41154;45.394;5.734;2023-04-01T05:56:46;96660.38;;;7.49;100.00
55289;BME280;41154;45.394;5.734;2023-04-01T05:59:12;96673.44;;;7.62;100.00
55289;BME280;41154;45.394;5.734;2023-04-01T06:01:39;96678.13;;;7.43;100.00
55289;BME280;41154;45.394;5.734;2023-04-01T06:04:05;96678.06;;;7.38;100.00
55289;BME280;41154;45.394;5.734;2023-04-01T06:06:31;96674.09;;;7.41;100.00
55289;BME280;41154;45.394;5.734;2023-04-01T06:09:18;96680.09;;;7.48;100.00
55289;BME280;41154;45.394;5.734;2023-04-01T06:12:24;96673.47;;;7.79;100.00
55289;BME280;41154;45.394;5.734;2023-04-01T06:24:21;96649.34;;;7.16;100.00
55289;BME280;41154;45.394;5.734;2023-04-01T06:43:03;96684.00;;;7.57;100.00
55289;BME280;41154;45.394;5.734;2023-04-01T06:55:42;96687.03;;;7.61;100.00
55289;BME280;41154;45.394;5.734;2023-04-01T06:58:41;96690.00;;;7.93;100.00
55289;BME280;41154;45.394;5.734;2023-04-01T07:01:26;96692.50;;;7.54;100.00
55289;BME280;41154;45.394;5.734;2023-04-01T07:03:57;96697.38;;;8.03;100.00
55289;BME280;41154;45.394;5.734;2023-04-01T07:06:31;96692.22;;;8.64;100.00
55289;BME280;41154;45.394;5.734;2023-04-01T07:09:04;96688.66;;;9.37;100.00
55289;BME280;41154;45.394;5.734;2023-04-01T07:11:53;96692.16;;;9.64;100.00
55289;BME280;41154;45.394;5.734;2023-04-01T07:14:41;96688.38;;;9.60;100.00
55289;BME280;41154;45.394;5.734;2023-04-01T07:17:15;96689.91;;;10.05;100.00
55289;BME280;41154;45.394;5.734;2023-04-01T07:19:47;96694.53;;;9.61;100.00
55289;BME280;41154;45.394;5.734;2023-04-01T07:22:32;96685.53;;;9.45;100.00
55289;BME280;41154;45.394;5.734;2023-04-01T07:25:16;96682.59;;;9.46;100.00
55289;BME280;41154;45.394;5.734;2023-04-01T07:27:48;96689.72;;;9.63;100.00
55289;BME280;41154;45.394;5.734;2023-04-01T07:30:16;96679.41;;;9.99;100.00
55289;BME280;41154;45.394;5.734;2023-04-01T07:38:04;96669.81;;;10.08;100.00
55289;BME280;41154;45.394;5.734;2023-04-01T07:49:10;96666.34;;;9.53;100.00
55289;BME280;41154;45.394;5.734;2023-04-01T07:52:00;96661.44;;;9.99;100.00
55289;BME280;41154;45.394;5.734;2023-04-01T08:14:10;96699.59;;;10.12;100.00
55289;BME280;41154;45.394;5.734;2023-04-01T08:17:02;96710.22;;;10.01;100.00
55289;BME280;41154;45.394;5.734;2023-04-01T08:22:38;96720.44;;;9.55;100.00
55289;BME280;41154;45.394;5.734;2023-04-01T08:25:19;96719.22;;;9.90;100.00
55289;BME280;41154;45.394;5.734;2023-04-01T08:28:09;96718.75;;;9.98;100.00
55289;BME280;41154;45.394;5.734;2023-04-01T08:30:41;96722.00;;;9.51;100.00
55289;BME280;41154;45.394;5.734;2023-04-01T08:33:15;96714.38;;;9.87;100.00
55289;BME280;41154;45.394;5.734;2023-04-01T08:35:54;96713.66;;;9.69;100.00
55289;BME280;41154;45.394;5.734;2023-04-01T08:38:29;96714.63;;;9.85;100.00
55289;BME280;41154;45.394;5.734;2023-04-01T08:40:59;96713.44;;;10.31;100.00
55289;BME280;41154;45.394;5.734;2023-04-01T08:43:48;96707.13;;;10.15;100.00
55289;BME280;41154;45.394;5.734;2023-04-01T08:54:37;96689.25;;;10.95;100.00
55289;BME280;41154;45.394;5.734;2023-04-01T09:12:25;96670.56;;;12.62;100.00
55289;BME280;41154;45.394;5.734;2023-04-01T09:23:38;96653.34;;;12.32;100.00
55289;BME280;41154;45.394;5.734;2023-04-01T09:35:01;96663.03;;;12.12;100.00
55289;BME280;41154;45.394;5.734;2023-04-01T09:40:26;96659.50;;;11.91;100.00
55289;BME280;41154;45.394;5.734;2023-04-01T09:51:50;96658.56;;;10.38;100.00
55289;BME280;41154;45.394;5.734;2023-04-01T10:17:47;96644.47;;;12.05;100.00
55289;BME280;41154;45.394;5.734;2023-04-01T10:26:30;96616.78;;;12.41;100.00
55289;BME280;41154;45.394;5.734;2023-04-01T10:59:50;96604.44;;;10.89;100.00
55289;BME280;41154;45.394;5.734;2023-04-01T11:25:40;96612.13;;;11.54;100.00
55289;BME280;41154;45.394;5.734;2023-04-01T11:29:03;96602.75;;;11.51;100.00
55289;BME280;41154;45.394;5.734;2023-04-01T11:31:39;96595.25;;;12.31;100.00
55289;BME280;41154;45.394;5.734;2023-04-01T11:34:15;96577.31;;;13.57;100.00
55289;BME280;41154;45.394;5.734;2023-04-01T11:39:32;96568.28;;;12.67;100.00
55289;BME280;41154;45.394;5.734;2023-04-01T11:42:33;96570.91;;;12.92;100.00
55289;BME280;41154;45.394;5.734;2023-04-01T11:54:06;96539.38;;;12.98;100.00
55289;BME280;41154;45.394;5.734;2023-04-01T11:59:57;96530.66;;;12.56;100.00
55289;BME280;41154;45.394;5.734;2023-04-01T12:11:08;96509.94;;;13.57;100.00
55289;BME280;41154;45.394;5.734;2023-04-01T12:13:59;96502.91;;;13.61;100.00
55289;BME280;41154;45.394;5.734;2023-04-01T12:16:42;96486.09;;;13.40;100.00
55289;BME280;41154;45.394;5.734;2023-04-01T12:21:57;96474.50;;;13.00;100.00
55289;BME280;41154;45.394;5.734;2023-04-01T12:36:18;96471.88;;;12.79;100.00
55289;BME280;41154;45.394;5.734;2023-04-01T12:55:40;96448.34;;;14.52;100.00
55289;BME280;41154;45.394;5.734;2023-04-01T12:58:33;96437.53;;;14.95;99.26
55289;BME280;41154;45.394;5.734;2023-04-01T13:09:30;96410.69;;;14.42;96.75
55289;BME280;41154;45.394;5.734;2023-04-01T13:12:17;96402.53;;;14.23;88.97
55289;BME280;41154;45.394;5.734;2023-04-01T13:18:22;96387.69;;;13.13;99.41
55289;BME280;41154;45.394;5.734;2023-04-01T13:20:44;96388.97;;;12.86;100.00
55289;BME280;41154;45.394;5.734;2023-04-01T13:28:56;96360.53;;;13.44;100.00
55289;BME280;41154;45.394;5.734;2023-04-01T13:37:29;96351.31;;;13.16;100.00
55289;BME280;41154;45.394;5.734;2023-04-01T13:43:29;96353.88;;;13.36;100.00
55289;BME280;41154;45.394;5.734;2023-04-01T13:48:34;96347.34;;;13.08;100.00
55289;BME280;41154;45.394;5.734;2023-04-01T14:13:02;96326.53;;;12.84;100.00
55289;BME280;41154;45.394;5.734;2023-04-01T14:20:59;96339.41;;;11.98;100.00
55289;BME280;41154;45.394;5.734;2023-04-01T14:23:55;96341.09;;;11.68;100.00
55289;BME280;41154;45.394;5.734;2023-04-01T14:27:02;96341.44;;;11.30;100.00
55289;BME280;41154;45.394;5.734;2023-04-01T14:35:09;96344.69;;;11.02;100.00
55289;BME280;41154;45.394;5.734;2023-04-01T14:43:47;96356.44;;;10.49;100.00
55289;BME280;41154;45.394;5.734;2023-04-01T14:49:32;96361.53;;;10.46;100.00
55289;BME280;41154;45.394;5.734;2023-04-01T14:52:16;96363.69;;;10.64;100.00
55289;BME280;41154;45.394;5.734;2023-04-01T14:54:48;96364.50;;;10.70;100.00
55289;BME280;41154;45.394;5.734;2023-04-01T14:57:16;96372.31;;;10.82;100.00
55289;BME280;41154;45.394;5.734;2023-04-01T14:59:59;96383.84;;;10.87;100.00
55289;BME280;41154;45.394;5.734;2023-04-01T15:08:12;96381.16;;;9.93;100.00
55289;BME280;41154;45.394;5.734;2023-04-01T15:10:53;96378.72;;;9.86;100.00
55289;BME280;41154;45.394;5.734;2023-04-01T15:13:57;96386.75;;;9.86;100.00
55289;BME280;41154;45.394;5.734;2023-04-01T15:33:26;96365.59;;;9.95;100.00
55289;BME280;41154;45.394;5.734;2023-04-01T15:50:28;96362.41;;;9.98;100.00
55289;BME280;41154;45.394;5.734;2023-04-01T15:58:37;96365.91;;;9.99;100.00
55289;BME280;41154;45.394;5.734;2023-04-01T16:03:57;96416.31;;;9.22;100.00
55289;BME280;41154;45.394;5.734;2023-04-01T16:06:44;96436.09;;;8.88;100.00
55289;BME280;41154;45.394;5.734;2023-04-01T16:09:22;96452.16;;;8.22;100.00
55289;BME280;41154;45.394;5.734;2023-04-01T16:15:21;96479.06;;;7.25;100.00
55289;BME280;41154;45.394;5.734;2023-04-01T16:20:55;96484.97;;;7.27;100.00
55289;BME280;41154;45.394;5.734;2023-04-01T16:23:35;96491.13;;;7.28;100.00
55289;BME280;41154;45.394;5.734;2023-04-01T16:26:13;96496.47;;;7.28;100.00
55289;BME280;41154;45.394;5.734;2023-04-01T16:29:09;96490.22;;;7.39;100.00
55289;BME280;41154;45.394;5.734;2023-04-01T16:31:45;96490.25;;;7.56;100.00
55289;BME280;41154;45.394;5.734;2023-04-01T16:34:30;96488.28;;;7.51;100.00
55289;BME280;41154;45.394;5.734;2023-04-01T16:37:10;96480.69;;;7.60;100.00
55289;BME280;41154;45.394;5.734;2023-04-01T16:39:47;96475.03;;;7.56;100.00
55289;BME280;41154;45.394;5.734;2023-04-01T16:44:52;96472.13;;;7.41;100.00
55289;BME280;41154;45.394;5.734;2023-04-01T16:47:47;96476.00;;;7.50;100.00
55289;BME280;41154;45.394;5.734;2023-04-01T16:53:45;96460.56;;;7.35;100.00
55289;BME280;41154;45.394;5.734;2023-04-01T16:56:24;96465.50;;;7.27;100.00
55289;BME280;41154;45.394;5.734;2023-04-01T16:59:07;96457.97;;;7.41;100.00
55289;BME280;41154;45.394;5.734;2023-04-01T17:01:48;96464.16;;;7.63;100.00
55289;BME280;41154;45.394;5.734;2023-04-01T17:04:47;96451.88;;;7.79;100.00
55289;BME280;41154;45.394;5.734;2023-04-01T17:10:14;96442.75;;;7.58;100.00
55289;BME280;41154;45.394;5.734;2023-04-01T17:13:14;96428.38;;;7.59;100.00
55289;BME280;41154;45.394;5.734;2023-04-01T17:15:59;96429.09;;;7.54;100.00
55289;BME280;41154;45.394;5.734;2023-04-01T17:39:55;96437.19;;;7.26;100.00
55289;BME280;41154;45.394;5.734;2023-04-01T17:42:40;96447.22;;;7.18;100.00
55289;BME280;41154;45.394;5.734;2023-04-01T17:50:30;96463.69;;;7.66;100.00
55289;BME280;41154;45.394;5.734;2023-04-01T17:58:21;96485.16;;;7.54;100.00
55289;BME280;41154;45.394;5.734;2023-04-01T18:22:39;96489.63;;;7.03;100.00
55289;BME280;41154;45.394;5.734;2023-04-01T18:25:35;96491.63;;;6.96;100.00
55289;BME280;41154;45.394;5.734;2023-04-01T18:28:34;96499.06;;;6.94;100.00
55289;BME280;41154;45.394;5.734;2023-04-01T18:33:43;96500.78;;;7.00;100.00
55289;BME280;41154;45.394;5.734;2023-04-01T18:36:19;96509.81;;;6.99;100.00
55289;BME280;41154;45.394;5.734;2023-04-01T18:38:47;96504.03;;;6.90;100.00
55289;BME280;41154;45.394;5.734;2023-04-01T18:41:22;96518.19;;;6.91;100.00
55289;BME280;41154;45.394;5.734;2023-04-01T18:47:11;96517.34;;;7.02;100.00
55289;BME280;41154;45.394;5.734;2023-04-01T18:55:32;96522.81;;;6.95;100.00
55289;BME280;41154;45.394;5.734;2023-04-01T18:57:47;96528.28;;;6.89;100.00
55289;BME280;41154;45.394;5.734;2023-04-01T19:00:21;96523.81;;;7.06;100.00
55289;BME280;41154;45.394;5.734;2023-04-01T19:03:21;96525.91;;;7.04;100.00
55289;BME280;41154;45.394;5.734;2023-04-01T19:05:51;96518.19;;;6.91;100.00
55289;BME280;41154;45.394;5.734;2023-04-01T19:11:31;96518.56;;;7.11;100.00
55289;BME280;41154;45.394;5.734;2023-04-01T19:17:13;96517.63;;;6.89;100.00
55289;BME280;41154;45.394;5.734;2023-04-01T19:20:00;96511.47;;;6.88;100.00
55289;BME280;41154;45.394;5.734;2023-04-01T19:27:55;96528.25;;;7.00;100.00
55289;BME280;41154;45.394;5.734;2023-04-01T19:30:36;96532.09;;;6.93;100.00
55289;BME280;41154;45.394;5.734;2023-04-01T19:33:09;96529.34;;;6.88;100.00
55289;BME280;41154;45.394;5.734;2023-04-01T19:36:11;96533.44;;;6.78;100.00
55289;BME280;41154;45.394;5.734;2023-04-01T19:38:48;96534.69;;;6.88;100.00
55289;BME280;41154;45.394;5.734;2023-04-01T19:41:40;96540.38;;;7.08;100.00
55289;BME280;41154;45.394;5.734;2023-04-01T19:47:39;96543.19;;;7.01;100.00
55289;BME280;41154;45.394;5.734;2023-04-01T19:50:30;96549.81;;;6.99;100.00
55289;BME280;41154;45.394;5.734;2023-04-01T19:52:59;96550.06;;;7.26;100.00
55289;BME280;41154;45.394;5.734;2023-04-01T19:55:41;96549.97;;;7.38;100.00
55289;BME280;41154;45.394;5.734;2023-04-01T19:58:34;96547.63;;;7.25;100.00
55289;BME280;41154;45.394;5.734;2023-04-01T20:01:14;96544.69;;;7.09;100.00
55289;BME280;41154;45.394;5.734;2023-04-01T20:03:58;96544.91;;;7.08;100.00
55289;BME280;41154;45.394;5.734;2023-04-01T20:09:47;96529.44;;;6.93;100.00
55289;BME280;41154;45.394;5.734;2023-04-01T20:15:32;96521.66;;;6.62;100.00
55289;BME280;41154;45.394;5.734;2023-04-01T20:18:02;96519.00;;;6.62;100.00
55289;BME280;41154;45.394;5.734;2023-04-01T20:20:31;96521.31;;;6.59;100.00
55289;BME280;41154;45.394;5.734;2023-04-01T20:25:57;96519.91;;;6.68;100.00
55289;BME280;41154;45.394;5.734;2023-04-01T20:31:29;96522.72;;;6.50;100.00
55289;BME280;41154;45.394;5.734;2023-04-01T20:37:32;96528.13;;;6.66;100.00
55289;BME280;41154;45.394;5.734;2023-04-01T20:47:45;96531.16;;;6.70;100.00
55289;BME280;41154;45.394;5.734;2023-04-01T20:52:57;96532.09;;;6.64;100.00
55289;BME280;41154;45.394;5.734;2023-04-01T21:26:47;96534.78;;;6.40;100.00
55289;BME280;41154;45.394;5.734;2023-04-01T21:35:08;96536.56;;;6.23;100.00
55289;BME280;41154;45.394;5.734;2023-04-01T21:40:17;96528.69;;;6.16;100.00
55289;BME280;41154;45.394;5.734;2023-04-01T21:45:23;96525.09;;;6.10;100.00
55289;BME280;41154;45.394;5.734;2023-04-01T21:48:07;96532.06;;;6.11;100.00
55289;BME280;41154;45.394;5.734;2023-04-01T21:50:44;96534.34;;;6.20;100.00
55289;BME280;41154;45.394;5.734;2023-04-01T21:59:01;96540.13;;;6.40;100.00
55289;BME280;41154;45.394;5.734;2023-04-01T22:07:09;96546.66;;;6.21;100.00
55289;BME280;41154;45.394;5.734;2023-04-01T22:09:59;96547.34;;;6.16;100.00
55289;BME280;41154;45.394;5.734;2023-04-01T22:12:38;96545.16;;;6.25;100.00
55289;BME280;41154;45.394;5.734;2023-04-01T22:18:31;96546.63;;;6.09;100.00
55289;BME280;41154;45.394;5.734;2023-04-01T22:26:35;96550.06;;;6.57;100.00
55289;BME280;41154;45.394;5.734;2023-04-01T22:40:23;96547.94;;;6.06;100.00
55289;BME280;41154;45.394;5.734;2023-04-01T22:43:20;96549.66;;;6.13;100.00
55289;BME280;41154;45.394;5.734;2023-04-01T22:48:42;96549.03;;;6.46;100.00
55289;BME280;41154;45.394;5.734;2023-04-01T22:53:59;96550.91;;;5.98;100.00
55289;BME280;41154;45.394;5.734;2023-04-01T22:56:34;96546.88;;;6.19;100.00
55289;BME280;41154;45.394;5.734;2023-04-01T22:59:35;96547.09;;;6.06;100.00
55289;BME280;41154;45.394;5.734;2023-04-01T23:02:29;96545.94;;;6.14;100.00
55289;BME280;41154;45.394;5.734;2023-04-01T23:04:59;96544.78;;;6.21;100.00
55289;BME280;41154;45.394;5.734;2023-04-01T23:07:53;96537.38;;;6.11;100.00
55289;BME280;41154;45.394;5.734;2023-04-01T23:10:28;96542.59;;;6.06;100.00
55289;BME280;41154;45.394;5.734;2023-04-01T23:13:00;96539.81;;;6.01;100.00
55289;BME280;41154;45.394;5.734;2023-04-01T23:15:27;96528.31;;;5.89;100.00
55289;BME280;41154;45.394;5.734;2023-04-01T23:18:11;96539.69;;;5.96;100.00
55289;BME280;41154;45.394;5.734;2023-04-01T23:23:30;96546.03;;;5.95;100.00
55289;BME280;41154;45.394;5.734;2023-04-01T23:28:44;96539.56;;;5.79;100.00
55289;BME280;41154;45.394;5.734;2023-04-01T23:31:34;96552.19;;;5.72;100.00
55289;BME280;41154;45.394;5.734;2023-04-01T23:36:44;96551.00;;;5.80;100.00
55289;BME280;41154;45.394;5.734;2023-04-01T23:39:50;96548.25;;;5.86;100.00
55289;BME280;41154;45.394;5.734;2023-04-01T23:42:27;96552.19;;;5.96;100.00
55289;BME280;41154;45.394;5.734;2023-04-01T23:44:57;96551.75;;;6.22;100.00